TimeWET,TemperatureF,Dew PointF,Humidity,Sea Level PressureIn,VisibilityMPH,Wind Direction,Wind SpeedMPH,Gust SpeedMPH,PrecipitationIn,Events,Conditions,WindDirDegrees,DateUTC
12:00 AM,56,40,43,29.98,5,North,18.4,,,,Partly Cloudy,0,2012-11-12 00:00:00
12:00 AM,57.2,39.2,51,29.95,5.0,North,18.4,-,N/A,,Scattered Clouds,360,2012-11-12 00:00:00
12:30 AM,55.4,39.2,54,29.95,5.0,North,23.0,-,N/A,,Scattered Clouds,360,2012-11-12 00:30:00
1:00 AM,55.4,41.0,58,29.95,5.0,North,23.0,-,N/A,,Scattered Clouds,10,2012-11-12 01:00:00
1:30 AM,55.4,41.0,58,29.95,5.0,NNE,20.7,33.4,N/A,,Scattered Clouds,20,2012-11-12 01:30:00
2:00 AM,55.4,41.0,58,29.92,5.0,NNE,27.6,-,N/A,,Scattered Clouds,20,2012-11-12 02:00:00
2:30 AM,55.4,39.2,54,29.95,5.0,NNE,21.9,33.4,N/A,,Scattered Clouds,20,2012-11-12 02:30:00
3:00 AM,55,38,42,29.96,5,NNE,19.6,,,,Partly Cloudy,20,2012-11-12 03:00:00
3:00 AM,55.4,39.2,54,29.95,5.0,North,19.6,31.1,N/A,,Scattered Clouds,10,2012-11-12 03:00:00
3:30 AM,55.4,39.2,54,29.95,5.0,North,20.7,-,N/A,,Scattered Clouds,10,2012-11-12 03:30:00
4:00 AM,53.6,39.2,58,29.95,-9999.0,NNE,13.8,-,N/A,,Unknown,20,2012-11-12 04:00:00
4:30 AM,53.6,39.2,58,29.95,5.0,NNE,18.4,-,N/A,,Scattered Clouds,20,2012-11-12 04:30:00
5:00 AM,53.6,41.0,62,29.95,5.0,NNE,21.9,-,N/A,,Scattered Clouds,20,2012-11-12 05:00:00
5:30 AM,53.6,42.8,67,29.95,5.0,NNE,17.3,-,N/A,,Scattered Clouds,20,2012-11-12 05:30:00
6:00 AM,52,43,62,29.97,5,NNE,15.0,,,,Partly Cloudy,20,2012-11-12 06:00:00
6:00 AM,51.8,42.8,71,29.95,5.0,NNE,15.0,-,N/A,,Scattered Clouds,20,2012-11-12 06:00:00
6:30 AM,51.8,42.8,71,29.98,5.0,NNE,13.8,-,N/A,,Scattered Clouds,30,2012-11-12 06:30:00
7:00 AM,51.8,44.6,76,29.98,6.2,NE,10.4,-,N/A,,Scattered Clouds,40,2012-11-12 07:00:00
7:30 AM,51.8,44.6,76,30.01,6.2,NNE,8.1,-,N/A,,Scattered Clouds,30,2012-11-12 07:30:00
8:00 AM,53.6,46.4,77,30.01,6.2,NNE,8.1,-,N/A,,Scattered Clouds,30,2012-11-12 08:00:00
8:30 AM,53.6,46.4,77,30.04,6.2,ESE,5.8,-,N/A,,Partly Cloudy,110,2012-11-12 08:30:00
9:00 AM,55,46,63,30.05,6,ESE,6.9,,,,Scattered Clouds,110,2012-11-12 09:00:00
9:00 AM,55.4,46.4,72,30.04,6.2,ESE,6.9,-,N/A,,Partly Cloudy,110,2012-11-12 09:00:00
9:30 AM,57.2,46.4,67,30.04,6.2,ESE,4.6,-,N/A,,Partly Cloudy,110,2012-11-12 09:30:00
10:00 AM,59.0,46.4,63,30.06,6.2,ESE,4.6,-,N/A,,Partly Cloudy,120,2012-11-12 10:00:00
10:30 AM,60.8,46.4,59,30.06,6.2,ESE,3.5,-,N/A,,Partly Cloudy,120,2012-11-12 10:30:00
11:00 AM,60.8,46.4,59,30.06,6.2,ENE,8.1,-,N/A,,Partly Cloudy,70,2012-11-12 11:00:00
11:30 AM,62.6,46.4,55,30.09,6.2,ENE,10.4,-,N/A,,Partly Cloudy,70,2012-11-12 11:30:00
12:00 PM,62.6,44.6,52,30.06,6.2,ENE,11.5,-,N/A,,Partly Cloudy,70,2012-11-12 12:00:00
12:30 PM,62.6,46.4,55,30.06,6.2,ENE,13.8,-,N/A,,Partly Cloudy,60,2012-11-12 12:30:00
1:00 PM,64.4,46.4,52,30.06,6.2,ENE,12.7,-,N/A,,Partly Cloudy,60,2012-11-12 13:00:00
1:30 PM,64.4,46.4,52,30.06,6.2,NE,11.5,-,N/A,,Partly Cloudy,50,2012-11-12 13:30:00
2:00 PM,64.4,46.4,52,30.06,6.2,ENE,11.5,-,N/A,,Partly Cloudy,70,2012-11-12 14:00:00
2:30 PM,64.4,46.4,52,30.06,6.2,East,9.2,-,N/A,,Partly Cloudy,80,2012-11-12 14:30:00
3:00 PM,65,46,39,30.08,6,East,10.4,,,,Scattered Clouds,90,2012-11-12 15:00:00
3:00 PM,64.4,46.4,52,30.06,6.2,East,10.4,-,N/A,,Partly Cloudy,90,2012-11-12 15:00:00
3:30 PM,64.4,48.2,56,30.06,6.2,East,9.2,-,N/A,,Partly Cloudy,80,2012-11-12 15:30:00
4:00 PM,64.4,48.2,56,30.06,6.2,ESE,9.2,-,N/A,,Partly Cloudy,110,2012-11-12 16:00:00
4:30 PM,64.4,48.2,56,30.09,6.2,ESE,6.9,-,N/A,,Partly Cloudy,110,2012-11-12 16:30:00
5:00 PM,62.6,48.2,59,30.09,6.2,ESE,5.8,-,N/A,,Partly Cloudy,120,2012-11-12 17:00:00
5:30 PM,59.0,48.2,67,30.09,6.2,ESE,2.3,-,N/A,,Partly Cloudy,110,2012-11-12 17:30:00
6:00 PM,55,48,70,30.13,6,East,3.5,,,,Scattered Clouds,90,2012-11-12 18:00:00
6:00 PM,55.4,48.2,77,30.12,6.2,East,3.5,-,N/A,,Partly Cloudy,90,2012-11-12 18:00:00
6:30 PM,53.6,48.2,82,30.12,5.0,NE,3.5,-,N/A,,Partly Cloudy,40,2012-11-12 18:30:00
7:00 PM,53.6,48.2,82,30.12,5.0,ENE,3.5,-,N/A,,Partly Cloudy,60,2012-11-12 19:00:00
7:30 PM,51.8,48.2,88,30.12,5.0,ESE,2.3,-,N/A,,Partly Cloudy,110,2012-11-12 19:30:00
8:00 PM,51.8,48.2,88,30.12,5.0,East,3.5,-,N/A,,Partly Cloudy,80,2012-11-12 20:00:00
8:30 PM,51.8,48.2,88,30.12,5.0,Variable,2.3,-,N/A,,Partly Cloudy,0,2012-11-12 20:30:00
9:00 PM,51,47,83,30.16,5,East,3.5,,,,Scattered Clouds,100,2012-11-12 21:00:00
9:00 PM,51.8,48.2,88,30.12,5.0,East,3.5,-,N/A,,Partly Cloudy,100,2012-11-12 21:00:00
9:30 PM,51.8,48.2,88,30.15,5.0,East,3.5,-,N/A,,Partly Cloudy,100,2012-11-12 21:30:00
10:00 PM,50.0,48.2,94,30.12,5.0,ESE,5.8,-,N/A,,Partly Cloudy,120,2012-11-12 22:00:00
11:00 PM,-9999,-9999,N/A,0.00,-9999.0,North,-9999.0,-,N/A,,Partly Cloudy,0,2012-11-12 23:00:00